West Pownal, ME

5:57 PM EST on December 10, 2016 (GMT -0500)
North Yarmouth | | Change Station
Active Advisory: Winter Storm Watch

Elev 141 ft 43.88 °N, 70.23 °W | Updated 7 minutes ago

Clear
Clear
16.9 °F
Feels Like 17 °F
N
0.0
Wind Variable Wind from North
Gusts 5.0 mph

Today
High -- | Low -- °F
--% Chance of Precip.
Yesterday
High -- | Low -- °F
Precip. -- in
Pressure 30.36 in
Visibility 10.0 miles
Clouds Clear
Windchill 17 °F
Dew Point 5 °F
Humidity 59%
Rainfall 0.00 in
Snow Depth Not available.
7:04 AM 4:03 PM
Waxing Gibbous, 87% visible
METAR KLEW 102256Z AUTO 30007KT 10SM CLR M08/M15 A3031 RMK AO2 SLP281 T10781150 FZRANO
Pressure 30.36 in
Visibility 10.0 miles
Clouds Clear
Windchill 17 °F
Dew Point 5 °F
Humidity 59%
Rainfall 0.00 in
Snow Depth Not available.
7:04 AM 4:03 PM
Waxing Gibbous, 87% visible
METAR KLEW 102256Z AUTO 30007KT 10SM CLR M08/M15 A3031 RMK AO2 SLP281 T10781150 FZRANO

10-Day Weather Forecast

Almanac

Astronomy

Dec. 10, 2016 Rise Set
Actual Time
Civil Twilight
Nautical Twilight
Astronomical Twilight
Moon
Length of Visible Light
Length of Day
Tomorrow will be .
, % of the Moon is Illuminated

Today's Extremes

State Highs State Lows

Community

WunderPhotos

Upload Photos

1,956,672 photos uploaded!

WunderBlog® & News

Nearby

Air Quality

  Air Quality AQ Index Pollutant
Not available.

Snow Depth

Station Depth Elevation

Earthquake Activity

City Distance Mag. Time & Date
Minimum magnitude displayed is 2.5.

Coastal Water Temperatures

Place Temperature

Stations

Nearby Weather Stations

Station Location Temp. Windchill Dew Point Humidity Wind Precip. Elev Updated Type
                   

Watches & Warnings

Winter Storm Watch
Issued: 3:06 PM EST Dec. 10, 2016 – National Weather Service

... Winter Storm Watch in effect from late Sunday night through
Monday evening...

The National Weather Service in gray has issued a Winter Storm
Watch... which is in effect from late Sunday night through Monday
evening.

* Hazard types... snow. Snow may be heavy at times in the morning.

* Accumulations... snow accumulation of 5 to 8 inches... along
with around a trace of ice.

* Timing... snow will begin late Sunday night and continue through
Monday.

* Impacts... snow will make for hazardous travel conditions

* winds... northeast 5 to 10 mph.

* Temperatures... in the mid 20s.

* Visibilities... one quarter mile or less at times.

Precautionary/preparedness actions...

A Winter Storm Watch means there is a potential for significant
snow... sleet... or ice accumulations that may impact travel.
Continue to monitor the latest forecasts.